Time;durP1;ratioP1;P1;durP2;ratioP2;P2;SDS_P1;SDS_P2;PMS_P1;PMS_P2;Temp;Humidity;BMP_temperature;BMP_pressure;BME280_temperature;BME280_humidity;BME280_pressure;Samples;Min_cycle;Max_cycle;Signal;HPM_P1;HPM_P2
2022/01/28 00:03:04;;;;;;;104.25;54.92;;;-2.70;99.90;;;;;;5290170;27;20028;-76
2022/01/28 00:05:37;;;;;;;130.68;66.22;;;-3.10;99.90;;;;;;5290053;28;20413;-77
2022/01/28 00:08:08;;;;;;;110.82;60.50;;;-2.70;99.90;;;;;;5290088;28;20027;-76
2022/01/28 00:10:40;;;;;;;121.05;60.30;;;-2.70;99.90;;;;;;5290199;28;20016;-76
2022/01/28 00:13:22;;;;;;;129.63;71.32;;;-2.90;99.90;;;;;;5290069;28;20028;-75
2022/01/28 00:18:56;;;;;;;119.15;65.43;;;-2.90;99.90;;;;;;5289871;28;20399;-76
2022/01/28 00:38:30;;;;;;;106.25;56.20;;;-3.30;99.90;;;;;;5289778;28;20038;-75
2022/01/28 00:41:02;;;;;;;111.53;60.42;;;-3.20;99.90;;;;;;5289813;28;20050;-76
2022/01/28 00:43:33;;;;;;;116.95;61.00;;;-3.10;99.90;;;;;;5289841;28;20024;-78
2022/01/28 00:46:04;;;;;;;106.38;57.25;;;-3.20;99.90;;;;;;5289629;28;20039;-76
2022/01/28 00:48:34;;;;;;;107.80;58.55;;;-3.20;99.90;;;;;;5289775;28;20023;-76
2022/01/28 00:51:06;;;;;;;102.07;53.92;;;-3.50;99.90;;;;;;5289637;28;20024;-78
2022/01/28 00:53:37;;;;;;;90.00;50.13;;;-3.40;99.90;;;;;;5288339;28;20031;-75
2022/01/28 00:56:07;;;;;;;89.25;48.58;;;-3.30;99.90;;;;;;5289350;28;20035;-77
2022/01/28 00:58:38;;;;;;;81.18;46.03;;;-3.10;99.90;;;;;;5291812;28;20023;-79
2022/01/28 01:01:09;;;;;;;81.88;44.35;;;-3.50;99.90;;;;;;5293741;28;20019;-76
2022/01/28 01:03:40;;;;;;;86.53;46.80;;;-3.40;99.90;;;;;;5292307;28;20027;-76
2022/01/28 01:06:11;;;;;;;86.00;46.65;;;-3.10;99.90;;;;;;5293555;28;20028;-76
2022/01/28 01:08:42;;;;;;;88.30;46.92;;;-3.30;99.90;;;;;;5293549;28;20114;-77
2022/01/28 01:11:12;;;;;;;74.63;42.10;;;-3.10;99.90;;;;;;5292286;28;20470;-76
2022/01/28 01:13:43;;;;;;;75.30;41.13;;;-3.40;99.90;;;;;;5293433;28;20031;-79
2022/01/28 01:16:18;;;;;;;72.88;40.28;;;-3.50;99.90;;;;;;5293466;27;20103;-76
2022/01/28 01:18:56;;;;;;;76.97;41.22;;;-3.30;99.90;;;;;;5293393;28;20110;-76
2022/01/28 01:21:29;;;;;;;70.18;38.75;;;-3.40;99.90;;;;;;5293319;28;20351;-76
2022/01/28 01:23:59;;;;;;;72.55;40.85;;;-3.50;99.90;;;;;;5293193;28;20024;-76
2022/01/28 01:26:33;;;;;;;71.35;38.25;;;-3.50;99.90;;;;;;5292819;28;20055;-80
2022/01/28 01:29:12;;;;;;;64.47;35.15;;;-3.50;99.90;;;;;;5293243;27;20019;-79
2022/01/28 01:31:43;;;;;;;69.10;39.50;;;-3.40;99.90;;;;;;5293228;28;20470;-76
2022/01/28 01:34:21;;;;;;;92.20;46.10;;;-3.30;99.90;;;;;;5293119;28;20027;-80
2022/01/28 01:36:52;;;;;;;85.15;44.35;;;-3.20;99.90;;;;;;5291618;28;20057;-80
2022/01/28 01:39:26;;;;;;;86.03;44.55;;;-3.20;99.90;;;;;;5291730;28;20028;-76
2022/01/28 01:42:05;;;;;;;76.55;40.85;;;-3.20;99.90;;;;;;5291619;28;20509;-75
2022/01/28 01:53:01;;;;;;;88.93;46.83;;;-3.70;99.90;;;;;;5293041;28;20055;-76
2022/01/28 01:55:31;;;;;;;84.55;44.75;;;-3.40;99.90;;;;;;5292489;28;20063;-80
2022/01/28 01:58:02;;;;;;;96.85;47.97;;;-3.40;99.90;;;;;;5292482;27;20027;-79
2022/01/28 02:00:33;;;;;;;89.47;48.08;;;-3.40;99.90;;;;;;5292570;28;20031;-77
2022/01/28 02:03:04;;;;;;;85.85;45.97;;;-3.40;99.90;;;;;;5291206;28;20176;-75
2022/01/28 02:05:35;;;;;;;85.43;44.28;;;-3.80;99.90;;;;;;5292384;28;20098;-80
2022/01/28 02:08:06;;;;;;;91.15;45.88;;;-3.60;99.90;;;;;;5292361;28;20118;-75
2022/01/28 02:10:37;;;;;;;81.63;43.58;;;-3.60;99.90;;;;;;5292227;28;20020;-80
2022/01/28 02:13:08;;;;;;;87.10;44.65;;;-3.70;99.90;;;;;;5292437;28;20066;-76
2022/01/28 02:15:39;;;;;;;76.50;42.92;;;-3.80;99.90;;;;;;5292131;28;20031;-81
2022/01/28 02:18:09;;;;;;;80.18;43.50;;;-3.80;99.90;;;;;;5292098;28;20039;-77
2022/01/28 02:20:43;;;;;;;82.57;42.45;;;-3.90;99.90;;;;;;5292250;28;20024;-80
2022/01/28 02:23:14;;;;;;;79.05;41.08;;;-4.00;99.90;;;;;;5292101;28;20465;-76
2022/01/28 02:25:45;;;;;;;72.90;40.70;;;-3.90;99.90;;;;;;5291671;28;20398;-80
2022/01/28 02:28:20;;;;;;;76.95;40.13;;;-4.00;99.90;;;;;;5291956;27;20027;-76
2022/01/28 02:30:51;;;;;;;69.78;35.75;;;-4.00;99.90;;;;;;5292073;28;20473;-80
2022/01/28 02:33:25;;;;;;;60.15;33.55;;;-3.90;99.90;;;;;;5291935;28;20023;-80
2022/01/28 02:36:02;;;;;;;67.20;35.75;;;-4.00;99.90;;;;;;5291909;28;20023;-81
2022/01/28 02:38:35;;;;;;;68.20;37.88;;;-4.20;99.90;;;;;;5291820;28;20118;-76
2022/01/28 02:41:06;;;;;;;70.07;38.03;;;-4.20;99.90;;;;;;5291807;28;20031;-80
2022/01/28 02:46:16;;;;;;;64.53;35.63;;;-4.20;99.90;;;;;;5291533;28;20038;-76
2022/01/28 02:49:21;;;;;;;69.00;36.90;;;-4.30;99.90;;;;;;5291671;28;20024;-81
2022/01/28 02:51:44;;;;;;;75.65;37.13;;;-4.30;99.90;;;;;;5289207;28;20031;-79
2022/01/28 02:54:17;;;;;;;62.70;34.85;;;-4.30;99.90;;;;;;5291280;28;20031;-80
2022/01/28 02:57:00;;;;;;;60.55;33.15;;;-4.50;99.90;;;;;;5291389;28;20030;-79
2022/01/28 02:59:31;;;;;;;75.93;38.45;;;-4.90;99.90;;;;;;5291349;28;20059;-80
2022/01/28 03:02:02;;;;;;;71.55;37.90;;;-4.50;99.90;;;;;;5291358;27;20709;-80
2022/01/28 03:07:07;;;;;;;64.10;35.05;;;-4.50;99.90;;;;;;5290029;28;20058;-80
2022/01/28 03:12:34;;;;;;;73.90;38.60;;;-4.90;99.90;;;;;;5291150;28;20096;-80
2022/01/28 03:15:07;;;;;;;71.20;37.00;;;-4.60;99.90;;;;;;5291129;28;20027;-79
2022/01/28 03:17:53;;;;;;;86.60;43.38;;;-4.60;99.90;;;;;;5290886;28;20019;-79
2022/01/28 03:22:55;;;;;;;89.85;47.13;;;-4.80;99.90;;;;;;5290828;28;20482;-79
2022/01/28 03:25:25;;;;;;;92.45;47.58;;;-5.20;99.90;;;;;;5289080;28;20067;-79
2022/01/28 03:27:59;;;;;;;86.85;45.22;;;-4.60;99.90;;;;;;5289546;28;20027;-79
2022/01/28 03:30:30;;;;;;;99.43;50.17;;;-4.70;99.90;;;;;;5290744;28;20020;-78
2022/01/28 03:33:01;;;;;;;88.18;45.15;;;-4.80;99.90;;;;;;5290763;28;20571;-79
2022/01/28 03:35:34;;;;;;;87.47;44.65;;;-4.50;99.90;;;;;;5290579;28;20102;-79
2022/01/28 03:38:10;;;;;;;87.43;43.47;;;-4.70;99.90;;;;;;5290462;28;20042;-78
2022/01/28 03:40:42;;;;;;;88.03;47.70;;;-4.90;99.90;;;;;;5290531;28;20068;-79
2022/01/28 03:43:13;;;;;;;83.72;45.15;;;-4.80;99.90;;;;;;5290473;28;20383;-79
2022/01/28 03:45:44;;;;;;;90.28;47.60;;;-4.80;99.90;;;;;;5290454;28;20024;-78
2022/01/28 03:48:15;;;;;;;81.13;44.47;;;-4.70;99.90;;;;;;5290330;28;20061;-79
2022/01/28 03:50:46;;;;;;;88.30;46.60;;;-4.90;99.90;;;;;;5289113;28;20020;-78
2022/01/28 03:53:17;;;;;;;83.50;42.88;;;-4.80;99.90;;;;;;5289001;28;20493;-77
2022/01/28 03:55:49;;;;;;;82.95;42.05;;;-4.80;99.90;;;;;;5290051;28;20076;-75
2022/01/28 03:58:20;;;;;;;83.57;42.85;;;-4.60;99.90;;;;;;5290233;28;20024;-75
2022/01/28 04:00:52;;;;;;;88.68;43.00;;;-4.70;99.90;;;;;;5288975;28;20018;-78
2022/01/28 04:11:36;;;;;;;85.20;43.00;;;-4.60;99.90;;;;;;5290375;28;20029;-79
2022/01/28 04:14:18;;;;;;;94.57;46.28;;;-4.80;99.90;;;;;;5290109;28;20661;-78
2022/01/28 04:19:38;;;;;;;69.50;36.70;;;-4.80;99.90;;;;;;5290096;28;20081;-79
2022/01/28 04:22:09;;;;;;;87.25;41.50;;;-4.70;99.90;;;;;;5289934;28;20455;-75
2022/01/28 04:24:40;;;;;;;87.40;44.45;;;-4.90;99.90;;;;;;5289706;28;20363;-77
2022/01/28 04:27:11;;;;;;;85.15;43.97;;;-5.10;99.90;;;;;;5289596;28;20131;-77
2022/01/28 04:29:42;;;;;;;91.03;45.92;;;-4.90;99.90;;;;;;5289896;28;20020;-78
2022/01/28 04:32:13;;;;;;;95.70;43.55;;;-5.10;99.90;;;;;;5289850;28;20048;-79
2022/01/28 04:34:44;;;;;;;81.38;37.67;;;-5.00;99.90;;;;;;5292824;28;20111;-79
2022/01/28 04:37:27;;;;;;;74.07;38.63;;;-5.10;99.90;;;;;;5294056;28;20050;-78
2022/01/28 04:40:18;;;;;;;74.53;38.92;;;-5.00;99.90;;;;;;5294174;28;20024;-78
2022/01/28 04:49:07;;;;;;;75.50;36.38;;;-5.00;99.90;;;;;;5270243;28;20077;-78
2022/01/28 04:52:12;;;;;;;54.33;28.30;;;-5.30;99.90;;;;;;5293909;28;20036;-77
2022/01/28 05:11:33;;;;;;;32.28;17.60;;;-3.60;99.90;;;;;;5273582;28;20356;-74
2022/01/28 05:28:04;;;;;;;33.83;17.85;;;-3.10;99.90;;;;;;5249033;28;20031;-74
2022/01/28 05:30:35;;;;;;;38.65;19.42;;;-2.90;99.90;;;;;;5278339;28;20032;-75
2022/01/28 05:33:06;;;;;;;32.13;16.92;;;-2.70;99.90;;;;;;5291776;28;20382;-74
2022/01/28 05:35:36;;;;;;;34.28;16.67;;;-2.90;99.90;;;;;;5292938;28;20035;-74
2022/01/28 05:38:07;;;;;;;32.38;16.42;;;-2.80;99.90;;;;;;5292692;28;20020;-74
2022/01/28 05:40:38;;;;;;;33.83;18.17;;;-2.60;99.90;;;;;;5292887;28;20032;-74
2022/01/28 05:43:09;;;;;;;30.88;16.88;;;-2.70;99.90;;;;;;5292273;27;20023;-75
2022/01/28 05:45:40;;;;;;;32.85;18.65;;;-2.70;99.90;;;;;;5292443;28;20027;-75
2022/01/28 05:48:12;;;;;;;36.53;20.20;;;-2.70;99.90;;;;;;5292754;28;20114;-74
2022/01/28 05:50:43;;;;;;;33.92;18.98;;;-2.30;99.90;;;;;;5292679;27;20481;-75
2022/01/28 05:53:14;;;;;;;39.92;20.00;;;-2.40;99.90;;;;;;5292673;27;20110;-74
2022/01/28 05:55:45;;;;;;;35.80;19.52;;;-2.60;99.90;;;;;;5292346;28;20486;-74
2022/01/28 05:58:16;;;;;;;40.17;20.02;;;-2.50;99.90;;;;;;5292425;28;20031;-74
2022/01/28 06:00:46;;;;;;;57.08;24.10;;;-2.50;99.90;;;;;;5292411;28;20016;-76
2022/01/28 06:03:17;;;;;;;161.80;45.95;;;-2.40;99.90;;;;;;5291205;28;20034;-74
2022/01/28 06:05:48;;;;;;;60.47;28.35;;;-2.20;99.90;;;;;;5290931;28;20069;-76
2022/01/28 06:08:19;;;;;;;49.58;23.23;;;-2.20;99.90;;;;;;5291069;28;20386;-74
2022/01/28 06:10:50;;;;;;;64.15;33.20;;;-2.30;99.90;;;;;;5292350;28;20012;-74
2022/01/28 06:13:21;;;;;;;46.03;23.92;;;-2.40;99.90;;;;;;5292224;28;20030;-75
2022/01/28 06:15:52;;;;;;;44.95;23.30;;;-2.20;99.90;;;;;;5292110;28;20016;-75
2022/01/28 06:18:23;;;;;;;42.33;22.60;;;-2.30;99.90;;;;;;5291938;28;20416;-76
2022/01/28 06:20:53;;;;;;;51.15;25.70;;;-2.40;99.90;;;;;;5292109;28;20012;-76
2022/01/28 06:23:24;;;;;;;51.30;22.90;;;-2.60;99.90;;;;;;5292007;28;20443;-74
2022/01/28 06:25:55;;;;;;;46.67;24.30;;;-2.30;99.90;;;;;;5291481;28;20132;-74
2022/01/28 06:28:27;;;;;;;50.55;24.73;;;-2.30;99.90;;;;;;5292014;28;20596;-74
2022/01/28 06:30:58;;;;;;;48.70;26.80;;;-2.00;99.90;;;;;;5291848;27;20020;-74
2022/01/28 06:33:28;;;;;;;45.83;24.65;;;-1.60;99.90;;;;;;5291883;28;20486;-74
2022/01/28 06:35:59;;;;;;;54.05;24.20;;;-1.70;99.90;;;;;;5291762;28;20066;-75
2022/01/28 06:38:33;;;;;;;49.70;25.40;;;-1.50;99.90;;;;;;5290317;28;20028;-74
2022/01/28 06:41:04;;;;;;;53.70;25.42;;;-1.20;99.90;;;;;;5291752;28;20416;-76
2022/01/28 06:43:34;;;;;;;55.10;27.65;;;-1.30;99.90;;;;;;5291603;28;20024;-75
2022/01/28 06:46:06;;;;;;;53.25;27.30;;;-0.90;99.90;;;;;;5291586;28;20478;-75
2022/01/28 06:48:36;;;;;;;47.38;24.90;;;-1.00;99.90;;;;;;5291431;28;20106;-75
2022/01/28 06:51:07;;;;;;;55.97;26.98;;;-0.70;99.90;;;;;;5291475;28;20106;-74
2022/01/28 06:53:38;;;;;;;53.92;26.02;;;-0.20;99.90;;;;;;5291457;28;20584;-75
2022/01/28 06:56:09;;;;;;;48.72;27.55;;;0.40;99.90;;;;;;5290092;28;20035;-74
2022/01/28 06:58:40;;;;;;;48.67;26.50;;;0.10;99.90;;;;;;5291189;28;20047;-74
2022/01/28 07:01:11;;;;;;;61.72;30.48;;;0.00;99.90;;;;;;5291356;28;20027;-74
2022/01/28 07:03:41;;;;;;;55.53;30.95;;;1.10;99.90;;;;;;5291231;28;20030;-75
2022/01/28 07:06:14;;;;;;;56.50;30.98;;;0.50;99.90;;;;;;5291043;28;20027;-74
2022/01/28 07:08:44;;;;;;;59.05;30.77;;;1.20;99.90;;;;;;5289887;28;20123;-74
2022/01/28 07:11:17;;;;;;;51.72;25.52;;;1.10;99.90;;;;;;5291109;28;20102;-76
2022/01/28 07:13:47;;;;;;;47.40;25.60;;;1.90;99.90;;;;;;5290948;28;20019;-75
2022/01/28 07:16:18;;;;;;;46.95;25.65;;;1.90;99.90;;;;;;5291036;28;20030;-75
2022/01/28 07:18:49;;;;;;;46.53;25.83;;;2.60;99.90;;;;;;5290756;28;20536;-76
2022/01/28 07:21:20;;;;;;;49.53;24.80;;;2.90;99.90;;;;;;5290766;28;20098;-76
2022/01/28 07:23:51;;;;;;;42.33;22.73;;;3.20;99.90;;;;;;5289425;27;20020;-77
2022/01/28 07:26:22;;;;;;;42.53;24.48;;;3.50;99.90;;;;;;5290681;28;20080;-75
2022/01/28 07:28:54;;;;;;;51.00;26.60;;;3.70;99.90;;;;;;5290796;28;20409;-77
2022/01/28 07:31:25;;;;;;;52.72;26.75;;;3.60;99.90;;;;;;5290804;28;20051;-76
2022/01/28 07:33:56;;;;;;;61.08;32.65;;;4.10;99.90;;;;;;5290747;28;20047;-76
2022/01/28 07:36:26;;;;;;;40.80;21.80;;;4.20;99.90;;;;;;5290587;28;20445;-78
2022/01/28 07:38:57;;;;;;;42.42;21.02;;;4.30;99.90;;;;;;5290674;28;20016;-78
2022/01/28 07:41:28;;;;;;;37.70;22.50;;;4.60;99.90;;;;;;5290538;28;20409;-78
2022/01/28 07:43:59;;;;;;;36.53;19.23;;;4.50;99.90;;;;;;5290557;28;20073;-76
2022/01/28 07:46:30;;;;;;;35.75;20.30;;;4.70;99.90;;;;;;5289225;28;20040;-79
2022/01/28 07:49:02;;;;;;;34.92;20.98;;;4.90;99.90;;;;;;5290491;28;20080;-77
2022/01/28 07:51:35;;;;;;;38.15;20.50;;;5.00;99.90;;;;;;5290435;28;20030;-78
2022/01/28 07:54:06;;;;;;;43.28;23.77;;;5.00;99.90;;;;;;5290283;28;20352;-76
2022/01/28 07:56:37;;;;;;;37.58;20.75;;;5.20;99.90;;;;;;5290213;28;20070;-76
2022/01/28 07:59:09;;;;;;;32.80;20.10;;;5.40;99.90;;;;;;5290396;28;20467;-77
2022/01/28 08:01:40;;;;;;;30.88;18.85;;;5.20;99.90;;;;;;5290140;28;20024;-76
2022/01/28 08:04:11;;;;;;;35.47;17.05;;;5.50;99.90;;;;;;5290205;28;20019;-77
2022/01/28 08:06:42;;;;;;;38.30;20.58;;;5.70;99.90;;;;;;5289559;28;20038;-76
2022/01/28 08:09:13;;;;;;;31.13;18.52;;;5.70;99.90;;;;;;5290089;28;20042;-77
2022/01/28 08:11:45;;;;;;;31.80;17.65;;;5.70;99.90;;;;;;5288811;28;20072;-76
2022/01/28 08:14:15;;;;;;;44.08;26.52;;;5.70;99.90;;;;;;5290119;28;20027;-78
2022/01/28 08:16:46;;;;;;;28.90;16.40;;;5.80;99.90;;;;;;5290422;28;20031;-76
2022/01/28 08:19:17;;;;;;;27.42;16.60;;;6.00;99.90;;;;;;5289221;28;20068;-78
2022/01/28 08:21:48;;;;;;;32.40;18.90;;;6.10;99.90;;;;;;5287084;28;20459;-79
2022/01/28 08:24:19;;;;;;;33.15;18.92;;;6.00;99.90;;;;;;5267652;28;20020;-79
2022/01/28 08:26:50;;;;;;;28.40;17.38;;;6.00;99.90;;;;;;5268602;28;20101;-81
2022/01/28 08:29:22;;;;;;;29.35;17.10;;;6.90;99.90;;;;;;5268903;28;20048;-80
2022/01/28 08:31:53;;;;;;;28.58;16.27;;;6.40;99.90;;;;;;5268807;28;20020;-77
2022/01/28 08:34:24;;;;;;;28.67;15.70;;;5.80;99.90;;;;;;5268819;28;20052;-79
2022/01/28 08:36:55;;;;;;;26.30;16.13;;;6.40;99.90;;;;;;5268791;28;20024;-79
2022/01/28 08:39:26;;;;;;;25.90;14.98;;;6.50;99.90;;;;;;5268819;28;20024;-79
2022/01/28 08:41:57;;;;;;;30.10;15.38;;;6.20;99.90;;;;;;5268702;28;20433;-80
2022/01/28 08:44:28;;;;;;;30.67;16.98;;;6.70;99.90;;;;;;5268528;28;20027;-79
2022/01/28 08:46:58;;;;;;;29.58;17.00;;;6.80;99.90;;;;;;5268667;28;20035;-79
2022/01/28 08:49:29;;;;;;;29.15;16.60;;;6.90;99.90;;;;;;5268712;28;20371;-77
2022/01/28 08:52:00;;;;;;;25.48;15.38;;;6.90;99.90;;;;;;5268700;28;20356;-81
2022/01/28 08:54:31;;;;;;;28.38;16.52;;;7.20;99.90;;;;;;5268434;28;20025;-80
2022/01/28 08:57:02;;;;;;;27.90;15.57;;;7.10;99.90;;;;;;5268561;28;20475;-80
2022/01/28 08:59:33;;;;;;;28.48;15.15;;;7.20;99.90;;;;;;5267280;28;20024;-76
2022/01/28 09:02:04;;;;;;;25.48;14.77;;;7.20;99.90;;;;;;5268491;28;20024;-79
2022/01/28 09:04:35;;;;;;;28.45;15.32;;;7.20;99.90;;;;;;5268502;28;20020;-75
2022/01/28 09:07:06;;;;;;;26.23;13.65;;;7.40;99.90;;;;;;5267080;28;20036;-77
2022/01/28 09:09:37;;;;;;;24.52;14.43;;;7.20;99.90;;;;;;5268166;28;20056;-78
2022/01/28 09:12:25;;;;;;;30.65;14.90;;;7.00;99.90;;;;;;5268341;28;20055;-77
2022/01/28 09:14:57;;;;;;;30.35;14.77;;;7.30;99.90;;;;;;5268280;28;20049;-75
2022/01/28 09:17:28;;;;;;;26.42;15.32;;;7.50;99.90;;;;;;5268250;28;20509;-75
2022/01/28 09:19:59;;;;;;;28.38;15.02;;;7.40;99.90;;;;;;5271061;28;20028;-78
2022/01/28 09:22:30;;;;;;;23.70;14.60;;;7.60;99.90;;;;;;5272335;28;20372;-76
2022/01/28 09:25:01;;;;;;;26.65;15.18;;;7.70;99.90;;;;;;5271720;28;20089;-78
2022/01/28 09:27:32;;;;;;;32.25;16.13;;;7.70;99.90;;;;;;5270864;28;20487;-80
2022/01/28 09:30:03;;;;;;;30.98;18.13;;;7.40;99.90;;;;;;5272165;28;20020;-75
2022/01/28 09:32:34;;;;;;;31.20;17.15;;;7.80;99.90;;;;;;5271541;28;20115;-76
2022/01/28 09:35:05;;;;;;;26.67;15.60;;;7.60;99.90;;;;;;5271971;28;20103;-77
2022/01/28 09:37:36;;;;;;;27.10;15.98;;;8.00;99.90;;;;;;5271995;28;20031;-77
2022/01/28 09:40:07;;;;;;;30.23;17.45;;;8.10;99.90;;;;;;5271931;28;20016;-80
2022/01/28 09:42:41;;;;;;;27.25;16.08;;;7.80;99.90;;;;;;5271890;28;20031;-79
2022/01/28 09:45:20;;;;;;;20.92;13.25;;;8.10;99.90;;;;;;5271873;28;20016;-80
2022/01/28 09:47:56;;;;;;;75.07;40.60;;;8.00;99.90;;;;;;5271777;28;20078;-80
2022/01/28 09:50:29;;;;;;;64.18;33.42;;;8.20;99.90;;;;;;5270433;28;20348;-75
2022/01/28 09:53:02;;;;;;;17.98;10.77;;;8.40;99.90;;;;;;5270480;28;20031;-79
2022/01/28 09:55:32;;;;;;;39.15;20.35;;;8.60;99.90;;;;;;5271327;28;20468;-75
2022/01/28 09:58:03;;;;;;;14.23;9.25;;;8.30;99.90;;;;;;5271530;28;20055;-76
2022/01/28 10:00:35;;;;;;;13.32;6.85;;;8.20;99.90;;;;;;5271438;28;20043;-80
2022/01/28 10:03:08;;;;;;;14.25;8.30;;;7.90;99.90;;;;;;5271431;28;20028;-78
2022/01/28 10:21:29;;;;;;;15.27;8.23;;;7.90;99.90;;;;;;5308305;27;20385;-77
2022/01/28 10:24:08;;;;;;;10.88;7.32;;;8.40;99.90;;;;;;5308358;28;20080;-77
2022/01/28 10:26:43;;;;;;;13.68;8.43;;;8.30;99.90;;;;;;5308415;28;20474;-77
2022/01/28 10:29:22;;;;;;;10.18;6.80;;;9.00;99.90;;;;;;5308159;28;20027;-78
2022/01/28 10:31:56;;;;;;;13.43;7.28;;;9.00;99.90;;;;;;5306833;28;20038;-79
2022/01/28 10:34:30;;;;;;;11.00;7.43;;;8.50;99.90;;;;;;5308077;28;20411;-78
2022/01/28 10:37:20;;;;;;;10.90;7.25;;;8.60;99.90;;;;;;5308061;28;20020;-78
2022/01/28 10:39:52;;;;;;;;;;;8.90;99.90;;;;;;5308396;28;20034;-78
2022/01/28 10:42:29;;;;;;;11.35;7.05;;;9.00;99.90;;;;;;5307824;27;19900;-78
2022/01/28 10:45:09;;;;;;;10.68;5.75;;;9.10;99.90;;;;;;5307852;28;20027;-79
2022/01/28 10:47:42;;;;;;;13.48;7.18;;;9.10;99.90;;;;;;5307851;28;20099;-79
2022/01/28 10:50:27;;;;;;;10.07;6.45;;;9.20;99.90;;;;;;5307414;28;20397;-79
2022/01/28 10:53:08;;;;;;;13.82;5.95;;;9.10;99.90;;;;;;5307856;27;20035;-79
2022/01/28 10:55:43;;;;;;;11.30;7.45;;;9.00;99.90;;;;;;5307763;27;20123;-79
2022/01/28 10:58:16;;;;;;;11.35;6.05;;;9.00;99.90;;;;;;5306517;28;20422;-80
2022/01/28 11:00:53;;;;;;;11.30;6.43;;;9.30;99.90;;;;;;5307487;28;20031;-79
2022/01/28 11:03:26;;;;;;;10.15;5.85;;;9.10;99.90;;;;;;5307656;27;20019;-79
2022/01/28 11:05:59;;;;;;;12.15;8.60;;;9.30;99.90;;;;;;5307446;27;20027;-79
2022/01/28 11:08:31;;;;;;;11.68;7.05;;;9.30;99.90;;;;;;5306034;28;20050;-79
2022/01/28 11:11:03;;;;;;;12.65;5.90;;;10.10;99.90;;;;;;5307260;28;20415;-79
2022/01/28 11:13:34;;;;;;;10.85;5.75;;;10.00;96.80;;;;;;5307326;27;20023;-79
2022/01/28 11:16:05;;;;;;;9.02;5.43;;;9.20;99.90;;;;;;5307215;28;20128;-80
2022/01/28 11:18:37;;;;;;;10.07;7.20;;;8.80;99.90;;;;;;5307173;27;20359;-79
2022/01/28 11:21:14;;;;;;;9.25;4.93;;;9.00;99.90;;;;;;5299634;27;20059;-78
2022/01/28 11:24:00;;;;;;;16.65;10.05;;;9.10;99.90;;;;;;5293031;28;20535;-78
2022/01/28 11:26:35;;;;;;;10.30;5.65;;;9.40;99.90;;;;;;5292945;28;20023;-78
2022/01/28 11:29:26;;;;;;;11.30;6.28;;;9.00;99.90;;;;;;5292751;28;20027;-79
2022/01/28 11:32:13;;;;;;;8.90;5.72;;;9.20;99.90;;;;;;5292632;28;20550;-78
2022/01/28 11:35:18;;;;;;;9.13;5.45;;;9.40;99.90;;;;;;5292728;28;20513;-79
2022/01/28 11:37:50;;;;;;;19.48;10.63;;;9.50;99.90;;;;;;5288441;28;20031;-79
2022/01/28 11:40:23;;;;;;;14.00;7.70;;;9.00;99.90;;;;;;5292583;28;20054;-78
2022/01/28 11:43:15;;;;;;;8.30;6.15;;;8.80;99.90;;;;;;5292670;28;20020;-78
2022/01/28 11:45:47;;;;;;;17.30;11.20;;;8.80;99.90;;;;;;5292636;28;20069;-79
2022/01/28 11:48:18;;;;;;;8.45;5.35;;;9.80;99.90;;;;;;5291283;28;20024;-79
2022/01/28 11:50:52;;;;;;;9.50;5.78;;;9.80;99.90;;;;;;5292047;27;20063;-79
2022/01/28 11:53:24;;;;;;;12.18;5.85;;;9.20;99.90;;;;;;5292275;28;20043;-80
2022/01/28 11:56:03;;;;;;;9.55;5.97;;;9.00;99.90;;;;;;5292367;28;20102;-79
2022/01/28 11:58:54;;;;;;;7.63;5.28;;;8.40;99.90;;;;;;5292117;28;20409;-78
2022/01/28 12:01:45;;;;;;;9.75;6.45;;;8.00;99.90;;;;;;5292213;27;20046;-80
2022/01/28 12:04:30;;;;;;;9.65;5.25;;;8.20;99.90;;;;;;5287966;28;20059;-79
2022/01/28 12:07:14;;;;;;;9.35;6.25;;;8.00;99.90;;;;;;5290891;28;20023;-79
2022/01/28 12:09:55;;;;;;;8.20;5.50;;;7.80;99.90;;;;;;5290697;28;20122;-79
2022/01/28 12:12:58;;;;;;;12.35;7.10;;;7.80;99.90;;;;;;5292006;28;20074;-80
2022/01/28 12:15:31;;;;;;;11.60;6.30;;;8.00;99.90;;;;;;5287359;28;20047;-78
2022/01/28 12:18:09;;;;;;;9.45;6.57;;;7.70;99.90;;;;;;5291866;28;20047;-79
2022/01/28 12:20:48;;;;;;;11.38;6.95;;;7.60;99.90;;;;;;5291404;28;20043;-79
2022/01/28 12:23:19;;;;;;;12.52;5.97;;;7.80;99.90;;;;;;5290550;28;20023;-78
2022/01/28 12:25:53;;;;;;;11.23;7.20;;;7.50;99.90;;;;;;5291820;28;20075;-78
2022/01/28 12:28:42;;;;;;;11.95;6.80;;;7.50;99.90;;;;;;5291666;28;20030;-83
2022/01/28 12:31:30;;;;;;;10.90;6.43;;;7.50;99.90;;;;;;5291409;28;20054;-78
2022/01/28 12:34:03;;;;;;;14.25;7.00;;;7.60;99.90;;;;;;5290663;28;20619;-78
2022/01/28 12:36:38;;;;;;;11.77;6.90;;;7.60;99.90;;;;;;5291597;28;20024;-78
2022/01/28 12:41:54;;;;;;;11.75;7.18;;;7.50;99.90;;;;;;5291373;28;20015;-77
2022/01/28 12:44:25;;;;;;;13.23;7.18;;;7.50;99.90;;;;;;5291349;28;20459;-78
2022/01/28 12:46:59;;;;;;;12.63;7.05;;;7.50;99.90;;;;;;5291319;28;20068;-77
2022/01/28 12:49:35;;;;;;;13.57;7.10;;;7.40;99.90;;;;;;5290989;28;20035;-78
2022/01/28 12:52:08;;;;;;;14.98;8.00;;;7.50;99.90;;;;;;5291123;28;20024;-78
2022/01/28 12:54:46;;;;;;;14.05;8.93;;;7.50;99.90;;;;;;5291139;28;20028;-78
2022/01/28 12:57:20;;;;;;;16.08;9.45;;;7.40;99.90;;;;;;5291036;28;20024;-78
2022/01/28 12:59:52;;;;;;;15.98;9.65;;;7.20;99.90;;;;;;5290935;28;20023;-79
2022/01/28 13:02:23;;;;;;;38.35;19.63;;;7.20;99.90;;;;;;5290970;28;20031;-79
2022/01/28 13:10:28;;;;;;;15.52;9.73;;;7.10;99.90;;;;;;5301200;27;20042;-78
2022/01/28 13:13:08;;;;;;;17.48;10.55;;;7.10;99.90;;;;;;5291376;28;20027;-79
2022/01/28 13:15:40;;;;;;;16.88;10.90;;;7.10;99.90;;;;;;5291173;28;20397;-78
2022/01/28 13:18:10;;;;;;;18.17;10.75;;;7.10;99.90;;;;;;5288994;28;20084;-80
2022/01/28 13:20:42;;;;;;;21.48;11.82;;;7.00;99.90;;;;;;5273279;28;20056;-82
2022/01/28 13:23:13;;;;;;;23.58;12.20;;;7.00;99.90;;;;;;5268461;28;20035;-79
2022/01/28 13:25:44;;;;;;;20.15;11.93;;;7.00;99.90;;;;;;5268159;28;20016;-78
2022/01/28 13:28:19;;;;;;;23.75;13.20;;;6.90;99.90;;;;;;5268067;28;20028;-78
2022/01/28 13:30:57;;;;;;;24.40;13.13;;;7.10;99.90;;;;;;5269173;28;20043;-78
2022/01/28 13:33:31;;;;;;;22.33;12.07;;;7.50;99.90;;;;;;5269393;28;20031;-78
2022/01/28 13:36:02;;;;;;;21.27;11.73;;;6.90;99.90;;;;;;5268005;28;20086;-80
2022/01/28 13:38:36;;;;;;;22.48;12.00;;;7.10;99.90;;;;;;5269290;28;20020;-79
2022/01/28 13:41:27;;;;;;;19.75;12.55;;;6.90;99.90;;;;;;5267886;28;20020;-80
2022/01/28 13:44:00;;;;;;;23.42;11.65;;;6.90;99.90;;;;;;5269068;28;20115;-79
2022/01/28 13:46:34;;;;;;;20.40;11.68;;;6.90;99.90;;;;;;5269114;28;20043;-79
2022/01/28 13:49:15;;;;;;;20.58;12.25;;;6.90;99.90;;;;;;5268734;28;20031;-79
2022/01/28 13:51:45;;;;;;;;;;;6.70;99.90;;;;;;5269208;28;20093;-79
2022/01/28 13:54:19;;;;;;;22.08;11.73;;;6.80;99.90;;;;;;5267825;28;20369;-79
2022/01/28 13:56:59;;;;;;;18.80;11.18;;;6.50;99.90;;;;;;5269084;28;20066;-79
2022/01/28 13:59:31;;;;;;;19.40;10.50;;;6.90;99.90;;;;;;5267817;28;20543;-79
2022/01/28 14:02:03;;;;;;;20.52;11.65;;;6.70;99.90;;;;;;5268999;28;20059;-79
2022/01/28 14:05:00;;;;;;;18.25;10.38;;;6.60;99.90;;;;;;5267689;28;20020;-79
2022/01/28 14:07:31;;;;;;;20.05;10.73;;;6.80;99.90;;;;;;5266781;28;20028;-79
2022/01/28 14:10:05;;;;;;;17.67;10.30;;;6.80;99.90;;;;;;5268749;28;20371;-79
2022/01/28 14:12:44;;;;;;;18.95;10.73;;;6.80;99.90;;;;;;5268765;28;20016;-78
2022/01/28 14:17:58;;;;;;;19.80;10.07;;;6.70;99.90;;;;;;5269001;28;20031;-79
2022/01/28 14:20:29;;;;;;;17.90;10.85;;;6.70;99.90;;;;;;5268183;28;20056;-79
2022/01/28 14:23:00;;;;;;;19.23;9.85;;;6.70;99.90;;;;;;5268776;28;20032;-79
2022/01/28 14:25:31;;;;;;;17.00;10.07;;;6.60;99.90;;;;;;5268710;28;20073;-79
2022/01/28 14:28:24;;;;;;;18.25;10.00;;;6.90;99.90;;;;;;5268652;28;20024;-78
2022/01/28 14:31:05;;;;;;;17.63;9.32;;;7.00;99.90;;;;;;5268563;28;20036;-79
2022/01/28 14:33:36;;;;;;;15.98;9.90;;;6.50;99.90;;;;;;5268671;28;20020;-79
2022/01/28 14:36:07;;;;;;;17.10;10.27;;;6.60;99.90;;;;;;5268423;28;20035;-83
2022/01/28 14:38:38;;;;;;;20.27;11.30;;;6.90;99.90;;;;;;5268554;28;20073;-78
2022/01/28 14:41:10;;;;;;;16.83;10.40;;;6.40;99.90;;;;;;5268518;28;20024;-79
2022/01/28 14:43:41;;;;;;;16.40;10.43;;;6.60;99.90;;;;;;5268623;28;20035;-79
2022/01/28 14:46:12;;;;;;;16.42;10.20;;;6.40;99.90;;;;;;5268459;28;20020;-79
2022/01/28 14:48:43;;;;;;;18.85;11.27;;;6.40;99.90;;;;;;5268212;28;20406;-83
2022/01/28 14:51:14;;;;;;;21.25;12.55;;;6.60;99.90;;;;;;5268322;28;20025;-79
2022/01/28 14:53:45;;;;;;;17.85;10.50;;;6.30;99.90;;;;;;5268406;28;20481;-79
2022/01/28 14:56:15;;;;;;;17.13;10.23;;;6.20;99.90;;;;;;5269781;28;20034;-78
2022/01/28 14:58:46;;;;;;;18.45;10.82;;;6.10;99.90;;;;;;5272449;28;20028;-79
2022/01/28 15:01:17;;;;;;;20.00;11.95;;;6.20;99.90;;;;;;5272219;28;20021;-78
2022/01/28 15:03:48;;;;;;;23.38;13.00;;;6.10;99.90;;;;;;5272263;28;20028;-79